Time;durP1;ratioP1;P1;durP2;ratioP2;P2;SDS_P1;SDS_P2;PMS_P1;PMS_P2;Temp;Humidity;BMP_temperature;BMP_pressure;BME280_temperature;BME280_humidity;BME280_pressure;Samples;Min_cycle;Max_cycle;Signal;HPM_P1;HPM_P2
2021/11/21 00:01:34;;;;;;;;;;;12.90;54.40;;;;;;5074498;28;19909;-72
2021/11/21 00:04:00;;;;;;;;;;;12.90;54.50;;;;;;5074329;28;19912;-72
2021/11/21 00:06:27;;;;;;;;;;;12.90;54.40;;;;;;5074354;28;19944;-73
2021/11/21 00:08:52;;;;;;;;;;;12.90;54.30;;;;;;5074312;28;19908;-72
2021/11/21 00:11:18;;;;;;;;;;;12.90;54.30;;;;;;5074063;28;20362;-73
2021/11/21 00:13:45;;;;;;;;;;;12.90;54.30;;;;;;5074096;28;19954;-73
2021/11/21 00:16:11;;;;;;;;;;;12.90;54.30;;;;;;5072670;28;19927;-73
2021/11/21 00:18:36;;;;;;;;;;;12.80;54.20;;;;;;5074162;28;19912;-73
2021/11/21 00:21:02;;;;;;;;;;;12.80;54.20;;;;;;5072808;28;19908;-72
2021/11/21 00:23:28;;;;;;;;;;;12.80;54.30;;;;;;5074060;28;20322;-73
2021/11/21 00:25:53;;;;;;;;;;;12.80;54.30;;;;;;5073913;28;20011;-73
2021/11/21 00:28:19;;;;;;;;;;;12.80;54.30;;;;;;5073947;28;19919;-72
2021/11/21 00:30:45;;;;;;;;;;;12.80;54.30;;;;;;5073914;28;19958;-73
2021/11/21 00:33:10;;;;;;;;;;;12.80;54.30;;;;;;5073800;28;20319;-73
2021/11/21 00:35:36;;;;;;;;;;;12.80;54.30;;;;;;5073693;28;19909;-73
2021/11/21 00:38:02;;;;;;;;;;;12.70;54.30;;;;;;5072448;28;19909;-73
2021/11/21 00:40:27;;;;;;;;;;;12.80;54.30;;;;;;5072613;28;19915;-73
2021/11/21 00:42:57;;;;;;;;;;;12.80;54.40;;;;;;5073606;28;19916;-73
2021/11/21 00:45:23;;;;;;;;;;;12.80;54.40;;;;;;5073439;28;19913;-73
2021/11/21 00:47:49;;;;;;;;;;;12.80;54.40;;;;;;5073514;28;19908;-73
2021/11/21 00:50:16;;;;;;;;;;;12.80;54.40;;;;;;5073486;28;19912;-73
2021/11/21 00:52:42;;;;;;;;;;;12.80;54.40;;;;;;5073415;28;19965;-73
2021/11/21 00:57:34;;;;;;;;;;;12.80;54.30;;;;;;5073550;28;19951;-73
2021/11/21 00:59:59;;;;;;;;;;;12.80;54.30;;;;;;5073264;28;19963;-73
2021/11/21 01:02:25;;;;;;;;;;;12.80;54.30;;;;;;5073103;28;19913;-72
2021/11/21 01:04:50;;;;;;;;;;;12.80;54.20;;;;;;5073150;28;20022;-72
2021/11/21 01:07:17;;;;;;;;;;;12.80;54.20;;;;;;5073100;28;19908;-73
2021/11/21 01:09:43;;;;;;;;;;;12.70;54.20;;;;;;5073052;28;19995;-73
2021/11/21 01:12:09;;;;;;;;;;;12.70;54.20;;;;;;5072707;28;20338;-72
2021/11/21 01:14:36;;;;;;;;;;;12.70;54.20;;;;;;5072629;28;19994;-73
2021/11/21 01:17:01;;;;;;;;;;;12.70;54.20;;;;;;5072917;28;19912;-72
2021/11/21 01:19:27;;;;;;;;;;;12.70;54.20;;;;;;5072829;28;20441;-73
2021/11/21 01:21:53;;;;;;;;;;;12.70;54.20;;;;;;5072816;28;19989;-72
2021/11/21 01:24:18;;;;;;;;;;;12.70;54.20;;;;;;5072843;28;19912;-72
2021/11/21 01:26:44;;;;;;;;;;;12.70;54.20;;;;;;5072790;28;19908;-73
2021/11/21 01:29:09;;;;;;;;;;;12.70;54.80;;;;;;5072739;28;19909;-72
2021/11/21 01:31:35;;;;;;;;;;;12.70;54.20;;;;;;5072770;28;19909;-73
2021/11/21 01:34:01;;;;;;;;;;;12.70;54.20;;;;;;5072706;28;19908;-73
2021/11/21 01:36:26;;;;;;;;;;;12.60;54.20;;;;;;5071332;28;19940;-73
2021/11/21 01:38:52;;;;;;;;;;;12.70;54.30;;;;;;5072668;28;19913;-73
2021/11/21 01:41:19;;;;;;;;;;;12.60;54.30;;;;;;5072883;28;19958;-73
2021/11/21 01:43:45;;;;;;;;;;;12.70;54.30;;;;;;5072435;28;19919;-71
2021/11/21 01:46:11;;;;;;;;;;;12.70;54.30;;;;;;5071250;28;19912;-72
2021/11/21 01:48:36;;;;;;;;;;;12.70;54.30;;;;;;5072843;28;19909;-72
2021/11/21 01:51:04;;;;;;;;;;;12.70;54.30;;;;;;5072199;28;20281;-72
2021/11/21 01:53:29;;;;;;;;;;;12.60;54.20;;;;;;5072399;28;19908;-71
2021/11/21 01:55:56;;;;;;;;;;;12.70;54.20;;;;;;5072954;28;19938;-72
2021/11/21 01:58:22;;;;;;;;;;;12.70;54.20;;;;;;5072368;28;19970;-72
2021/11/21 02:00:48;;;;;;;;;;;12.70;54.20;;;;;;5072323;28;19909;-71
2021/11/21 02:03:13;;;;;;;;;;;12.60;54.10;;;;;;5070829;28;19951;-72
2021/11/21 02:05:39;;;;;;;;;;;12.60;54.10;;;;;;5072140;28;20255;-72
2021/11/21 02:08:05;;;;;;;;;;;12.60;54.10;;;;;;5070736;28;19909;-72
2021/11/21 02:10:34;;;;;;;;;;;12.60;54.10;;;;;;5071769;28;19915;-72
2021/11/21 02:13:00;;;;;;;;;;;12.60;54.20;;;;;;5071961;28;20481;-71
2021/11/21 02:15:26;;;;;;;;;;;12.60;54.20;;;;;;5071794;28;19928;-71
2021/11/21 02:17:52;;;;;;;;;;;12.60;54.20;;;;;;5071848;28;19908;-72
2021/11/21 02:20:33;;;;;;;;;;;12.60;54.30;;;;;;5071982;28;19940;-72
2021/11/21 02:23:01;;;;;;;;;;;12.60;54.30;;;;;;5071895;28;19908;-72
2021/11/21 02:25:26;;;;;;;;;;;12.50;54.30;;;;;;5071817;28;19919;-72
2021/11/21 02:27:52;;;;;;;;;;;12.60;54.40;;;;;;5071858;28;19908;-72
2021/11/21 02:30:18;;;;;;;;;;;12.60;54.40;;;;;;5071864;28;19908;-72
2021/11/21 02:32:44;;;;;;;;;;;12.60;54.40;;;;;;5072073;28;19958;-72
2021/11/21 02:35:10;;;;;;;;;;;12.60;54.30;;;;;;5071916;28;19908;-72
2021/11/21 02:37:37;;;;;;;;;;;12.50;54.20;;;;;;5070581;28;19920;-72
2021/11/21 02:40:03;;;;;;;;;;;12.60;54.30;;;;;;5071933;28;20258;-72
2021/11/21 02:42:31;;;;;;;;;;;12.60;54.30;;;;;;5071884;28;19909;-72
2021/11/21 02:44:57;;;;;;;;;;;12.60;54.30;;;;;;5071782;28;19935;-72
2021/11/21 02:47:23;;;;;;;;;;;12.50;54.20;;;;;;5071903;28;20361;-72
2021/11/21 02:49:50;;;;;;;;;;;12.50;54.20;;;;;;5071902;28;19904;-72
2021/11/21 02:52:16;;;;;;;;;;;12.50;54.20;;;;;;5070579;28;19958;-72
2021/11/21 02:54:52;;;;;;;;;;;12.50;54.20;;;;;;5070488;28;19978;-72
2021/11/21 02:57:18;;;;;;;;;;;12.50;54.20;;;;;;5071862;28;19954;-72
2021/11/21 02:59:43;;;;;;;;;;;12.50;54.20;;;;;;5071741;28;19905;-72
2021/11/21 03:02:09;;;;;;;;;;;12.40;54.20;;;;;;5070515;28;20297;-72
2021/11/21 03:04:34;;;;;;;;;;;12.40;54.20;;;;;;5075086;28;19920;-72
2021/11/21 03:07:00;;;;;;;;;;;12.40;54.10;;;;;;5075390;28;19915;-72
2021/11/21 03:09:26;;;;;;;;;;;12.40;54.20;;;;;;5075338;28;19909;-72
2021/11/21 03:11:53;;;;;;;;;;;12.40;54.20;;;;;;5075137;28;19951;-72
2021/11/21 03:14:19;;;;;;;;;;;12.40;54.20;;;;;;5075222;28;19916;-72
2021/11/21 03:16:46;;;;;;;;;;;12.40;54.20;;;;;;5075189;28;19912;-72
2021/11/21 03:19:11;;;;;;;;;;;12.40;54.30;;;;;;5073788;28;19920;-72
2021/11/21 03:21:37;;;;;;;;;;;12.40;54.30;;;;;;5075268;28;20285;-72
2021/11/21 03:24:03;;;;;;;;;;;12.40;54.20;;;;;;5075050;28;19913;-72
2021/11/21 03:26:29;;;;;;;;;;;12.40;54.20;;;;;;5074977;28;19952;-72
2021/11/21 03:28:55;;;;;;;;;;;12.40;54.20;;;;;;5073670;28;19954;-72
2021/11/21 03:31:20;;;;;;;;;;;12.40;54.20;;;;;;5074978;28;19909;-72
2021/11/21 03:33:46;;;;;;;;;;;12.40;54.30;;;;;;5074978;28;20348;-72
2021/11/21 03:36:11;;;;;;;;;;;12.40;54.20;;;;;;5074848;28;19916;-72
2021/11/21 03:38:37;;;;;;;;;;;12.40;54.30;;;;;;5074856;28;19927;-72
2021/11/21 03:41:03;;;;;;;;;;;12.40;54.20;;;;;;5074868;28;19916;-72
2021/11/21 03:43:28;;;;;;;;;;;12.40;54.10;;;;;;5074628;28;19943;-72
2021/11/21 03:45:54;;;;;;;;;;;12.30;54.10;;;;;;5074774;28;20258;-72
2021/11/21 03:48:20;;;;;;;;;;;12.30;54.10;;;;;;5075013;28;20289;-72
2021/11/21 03:50:45;;;;;;;;;;;12.30;54.10;;;;;;5074748;28;19916;-72
2021/11/21 03:53:11;;;;;;;;;;;12.30;54.10;;;;;;5074636;28;19915;-72
2021/11/21 03:55:37;;;;;;;;;;;12.30;54.20;;;;;;5074550;28;19908;-72
2021/11/21 03:58:03;;;;;;;;;;;12.30;54.20;;;;;;5073215;28;19960;-72
2021/11/21 04:00:29;;;;;;;;;;;12.20;54.20;;;;;;5074472;28;20334;-72
2021/11/21 04:02:56;;;;;;;;;;;12.20;54.20;;;;;;5074404;28;19943;-72
2021/11/21 04:05:22;;;;;;;;;;;12.20;54.20;;;;;;5074356;28;20285;-72
2021/11/21 04:07:47;;;;;;;;;;;12.20;54.20;;;;;;5074199;28;19946;-72
2021/11/21 04:10:13;;;;;;;;;;;12.20;54.20;;;;;;5074625;28;19915;-72
2021/11/21 04:12:39;;;;;;;;;;;12.30;54.30;;;;;;5073999;28;19908;-72
2021/11/21 04:15:05;;;;;;;;;;;12.20;54.20;;;;;;5073805;28;20480;-71
2021/11/21 04:17:32;;;;;;;;;;;12.20;54.20;;;;;;5073913;28;19935;-72
2021/11/21 04:19:58;;;;;;;;;;;12.20;54.20;;;;;;5072753;28;20343;-71
2021/11/21 04:22:23;;;;;;;;;;;12.30;54.30;;;;;;5073987;28;19935;-72
2021/11/21 04:24:49;;;;;;;;;;;12.20;54.30;;;;;;5073830;28;19916;-72
2021/11/21 04:27:14;;;;;;;;;;;12.30;54.30;;;;;;5072629;28;19915;-72
2021/11/21 04:29:40;;;;;;;;;;;12.20;54.30;;;;;;5073846;28;19905;-72
2021/11/21 04:32:06;;;;;;;;;;;12.30;54.90;;;;;;5072581;28;19908;-72
2021/11/21 04:34:32;;;;;;;;;;;12.30;54.30;;;;;;5072417;28;19908;-72
2021/11/21 04:36:59;;;;;;;;;;;12.20;54.30;;;;;;5073737;28;19908;-72
2021/11/21 04:39:25;;;;;;;;;;;12.30;54.30;;;;;;5072437;28;19916;-72
2021/11/21 04:41:52;;;;;;;;;;;12.30;54.30;;;;;;5073656;28;19939;-72
2021/11/21 04:44:18;;;;;;;;;;;12.30;54.90;;;;;;5073529;28;20023;-72
2021/11/21 04:46:43;;;;;;;;;;;12.30;54.30;;;;;;5073437;28;19994;-72
2021/11/21 04:49:09;;;;;;;;;;;12.20;54.20;;;;;;5073406;28;19915;-72
2021/11/21 04:51:35;;;;;;;;;;;12.30;54.30;;;;;;5073300;28;19908;-72
2021/11/21 04:54:03;;;;;;;;;;;12.20;54.20;;;;;;5073368;28;20003;-72
2021/11/21 04:56:29;;;;;;;;;;;12.30;54.30;;;;;;5073142;28;19999;-72
2021/11/21 04:58:55;;;;;;;;;;;12.20;54.20;;;;;;5071943;28;20003;-71
2021/11/21 05:01:20;;;;;;;;;;;12.20;54.20;;;;;;5071896;28;20007;-73
2021/11/21 05:03:46;;;;;;;;;;;12.20;54.20;;;;;;5073038;28;19912;-73
2021/11/21 05:06:12;;;;;;;;;;;12.20;54.20;;;;;;5072945;28;19915;-73
2021/11/21 05:08:38;;;;;;;;;;;12.20;54.20;;;;;;5073069;28;19995;-73
2021/11/21 05:11:03;;;;;;;;;;;12.20;54.20;;;;;;5072829;28;19968;-73
2021/11/21 05:13:29;;;;;;;;;;;12.20;54.20;;;;;;5073047;28;19943;-73
2021/11/21 05:15:55;;;;;;;;;;;12.20;54.20;;;;;;5072801;28;19938;-73
2021/11/21 05:18:20;;;;;;;;;;;12.20;54.20;;;;;;5072867;28;20348;-73
2021/11/21 05:20:46;;;;;;;;;;;12.20;54.20;;;;;;5072807;28;19909;-73
2021/11/21 05:23:11;;;;;;;;;;;12.20;54.20;;;;;;5072675;28;19931;-72
2021/11/21 05:25:37;;;;;;;;;;;12.20;54.20;;;;;;5072163;28;20042;-72
2021/11/21 05:28:03;;;;;;;;;;;12.20;54.20;;;;;;5071472;28;19908;-72
2021/11/21 05:30:28;;;;;;;;;;;12.20;54.20;;;;;;5072676;28;19908;-72
2021/11/21 05:32:54;;;;;;;;;;;12.20;54.30;;;;;;5072606;28;20281;-72
2021/11/21 05:35:20;;;;;;;;;;;12.20;54.20;;;;;;5071317;28;19919;-72
2021/11/21 05:37:46;;;;;;;;;;;12.20;54.20;;;;;;5072517;28;19912;-72
2021/11/21 05:40:12;;;;;;;;;;;12.20;54.20;;;;;;5072492;28;19908;-72
2021/11/21 05:42:38;;;;;;;;;;;12.20;54.20;;;;;;5072563;28;19957;-72
2021/11/21 05:45:04;;;;;;;;;;;12.10;54.10;;;;;;5072292;28;19920;-73
2021/11/21 05:47:31;;;;;;;;;;;12.10;54.20;;;;;;5072385;28;20413;-72
2021/11/21 05:49:57;;;;;;;;;;;12.10;54.20;;;;;;5072493;28;19915;-72
2021/11/21 05:52:23;;;;;;;;;;;12.00;54.20;;;;;;5072435;28;19909;-73
2021/11/21 05:54:50;;;;;;;;;;;12.10;54.20;;;;;;5072488;28;19908;-72
2021/11/21 05:57:16;;;;;;;;;;;12.10;54.30;;;;;;5072306;28;19909;-72
2021/11/21 05:59:41;;;;;;;;;;;12.10;54.30;;;;;;5072341;28;19908;-72
2021/11/21 06:02:07;;;;;;;;;;;12.00;54.20;;;;;;5072387;28;19974;-73
2021/11/21 06:04:33;;;;;;;;;;;12.00;54.20;;;;;;5072024;28;19942;-72
2021/11/21 06:06:59;;;;;;;;;;;12.00;54.20;;;;;;5070831;28;19962;-72
2021/11/21 06:09:24;;;;;;;;;;;12.00;54.20;;;;;;5072228;28;20320;-72
2021/11/21 06:11:51;;;;;;;;;;;12.00;54.20;;;;;;5070717;28;20273;-72
2021/11/21 06:14:17;;;;;;;;;;;12.00;54.20;;;;;;5072011;28;19939;-73
2021/11/21 06:16:43;;;;;;;;;;;12.00;54.50;;;;;;5072141;28;20362;-72
2021/11/21 06:19:08;;;;;;;;;;;12.00;54.30;;;;;;5072113;28;19915;-72
2021/11/21 06:21:34;;;;;;;;;;;12.00;54.20;;;;;;5072070;28;19947;-72
2021/11/21 06:24:00;;;;;;;;;;;12.00;54.20;;;;;;5072056;28;19977;-73
2021/11/21 06:26:25;;;;;;;;;;;12.00;54.30;;;;;;5071861;28;20403;-72
2021/11/21 06:28:53;;;;;;;;;;;12.00;54.30;;;;;;5071986;28;20308;-72
2021/11/21 06:31:19;;;;;;;;;;;12.00;54.30;;;;;;5072000;28;19909;-73
2021/11/21 06:33:45;;;;;;;;;;;12.00;54.30;;;;;;5071999;28;20480;-72
2021/11/21 06:36:10;;;;;;;;;;;12.00;54.40;;;;;;5071903;28;19999;-72
2021/11/21 06:38:36;;;;;;;;;;;12.00;54.40;;;;;;5073945;28;20362;-72
2021/11/21 06:41:01;;;;;;;;;;;12.00;54.40;;;;;;5075854;28;20309;-72
2021/11/21 06:43:27;;;;;;;;;;;12.00;54.40;;;;;;5075684;28;19915;-72
2021/11/21 06:45:53;;;;;;;;;;;12.00;54.30;;;;;;5075890;28;19908;-71
2021/11/21 06:48:21;;;;;;;;;;;12.00;54.30;;;;;;5075794;28;19974;-72
2021/11/21 06:50:48;;;;;;;;;;;12.00;54.30;;;;;;5075758;28;19948;-72
2021/11/21 06:53:14;;;;;;;;;;;12.00;54.20;;;;;;5075562;28;20003;-72
2021/11/21 06:55:40;;;;;;;;;;;12.00;54.30;;;;;;5075698;28;19912;-72
2021/11/21 06:58:06;;;;;;;;;;;12.10;54.30;;;;;;5075504;28;19916;-72
2021/11/21 07:00:32;;;;;;;;;;;12.00;54.30;;;;;;5075556;28;19913;-72
2021/11/21 07:02:57;;;;;;;;;;;12.10;54.30;;;;;;5075341;28;19908;-72
2021/11/21 07:05:23;;;;;;;;;;;12.00;54.20;;;;;;5074108;28;19944;-72
2021/11/21 07:07:48;;;;;;;;;;;12.10;54.30;;;;;;5075432;28;19991;-73
2021/11/21 07:10:15;;;;;;;;;;;12.10;54.30;;;;;;5074256;28;20273;-73
2021/11/21 07:12:41;;;;;;;;;;;12.10;54.30;;;;;;5073798;28;19959;-73
2021/11/21 07:15:07;;;;;;;;;;;12.10;54.30;;;;;;5075111;28;19921;-73
2021/11/21 07:17:33;;;;;;;;;;;12.10;54.30;;;;;;5073936;28;19909;-73
2021/11/21 07:19:58;;;;;;;;;;;12.20;54.30;;;;;;5075218;28;20038;-73
2021/11/21 07:22:24;;;;;;;;;;;12.20;54.20;;;;;;5075204;28;19951;-73
2021/11/21 07:24:50;;;;;;;;;;;12.20;54.20;;;;;;5075016;28;19919;-73
2021/11/21 07:27:15;;;;;;;;;;;12.20;54.20;;;;;;5075220;28;19909;-73
2021/11/21 07:29:41;;;;;;;;;;;12.20;54.20;;;;;;5073616;28;20451;-74
2021/11/21 07:32:07;;;;;;;;;;;12.30;54.30;;;;;;5075089;28;19955;-73
2021/11/21 07:34:32;;;;;;;;;;;12.30;54.20;;;;;;5074948;28;19999;-73
2021/11/21 07:36:58;;;;;;;;;;;12.40;54.10;;;;;;5074927;28;20006;-73
2021/11/21 07:39:24;;;;;;;;;;;12.40;54.10;;;;;;5074890;28;19909;-74
2021/11/21 07:41:50;;;;;;;;;;;12.40;54.20;;;;;;5075048;28;19908;-73
2021/11/21 07:44:15;;;;;;;;;;;12.50;54.20;;;;;;5074636;28;20026;-74
2021/11/21 07:46:41;;;;;;;;;;;12.50;54.20;;;;;;5075610;28;19971;-73
2021/11/21 07:49:07;;;;;;;;;;;12.50;54.10;;;;;;5074097;28;19908;-74
2021/11/21 07:51:32;;;;;;;;;;;12.60;54.00;;;;;;5074660;28;19952;-74
2021/11/21 07:53:58;;;;;;;;;;;12.60;53.90;;;;;;5074527;28;20027;-74
2021/11/21 07:56:24;;;;;;;;;;;12.60;53.90;;;;;;5074513;28;19916;-74
2021/11/21 07:58:50;;;;;;;;;;;12.60;54.50;;;;;;5074471;28;19913;-73
2021/11/21 08:01:17;;;;;;;;;;;12.60;53.80;;;;;;5074382;28;19909;-73
2021/11/21 08:03:42;;;;;;;;;;;12.70;53.80;;;;;;5073083;28;20306;-73
2021/11/21 08:06:08;;;;;;;;;;;12.80;53.80;;;;;;5074392;28;20310;-73
2021/11/21 08:08:34;;;;;;;;;;;12.80;53.70;;;;;;5074317;28;19905;-73
2021/11/21 08:10:59;;;;;;;;;;;12.80;53.60;;;;;;5074113;28;19973;-73
2021/11/21 08:13:26;;;;;;;;;;;12.80;53.50;;;;;;5074218;28;20262;-73
2021/11/21 08:15:55;;;;;;;;;;;12.80;53.50;;;;;;5074019;28;19925;-73
2021/11/21 08:18:21;;;;;;;;;;;12.80;53.50;;;;;;5073130;28;20337;-73
2021/11/21 08:20:47;;;;;;;;;;;12.90;53.60;;;;;;5072791;28;20011;-74
2021/11/21 08:23:12;;;;;;;;;;;12.90;53.60;;;;;;5072737;28;19916;-73
2021/11/21 08:25:41;;;;;;;;;;;12.90;53.50;;;;;;5072552;28;19963;-72
2021/11/21 08:28:07;;;;;;;;;;;13.00;53.40;;;;;;5073843;28;20313;-73
2021/11/21 08:30:36;;;;;;;;;;;13.00;53.40;;;;;;5073738;28;19909;-73
2021/11/21 08:33:03;;;;;;;;;;;13.00;53.20;;;;;;5072485;28;19908;-73
2021/11/21 08:35:28;;;;;;;;;;;13.10;53.10;;;;;;5073646;28;19909;-74
2021/11/21 08:37:54;;;;;;;;;;;13.00;53.00;;;;;;5073785;28;20289;-72
2021/11/21 08:40:20;;;;;;;;;;;13.10;53.00;;;;;;5073927;28;20343;-72
2021/11/21 08:42:45;;;;;;;;;;;13.10;53.00;;;;;;5073455;28;20463;-72
2021/11/21 08:45:11;;;;;;;;;;;13.10;53.00;;;;;;5073396;28;20625;-72
2021/11/21 08:47:37;;;;;;;;;;;13.20;53.10;;;;;;5073420;28;19909;-73
2021/11/21 08:50:06;;;;;;;;;;;13.20;52.90;;;;;;5073481;28;19959;-72
2021/11/21 08:52:31;;;;;;;;;;;13.20;52.90;;;;;;5072173;28;19908;-74
2021/11/21 08:54:57;;;;;;;;;;;13.20;52.70;;;;;;5073449;28;19912;-73
2021/11/21 08:57:23;;;;;;;;;;;13.20;52.60;;;;;;5073309;28;19995;-72
2021/11/21 08:59:48;;;;;;;;;;;13.20;52.50;;;;;;5072956;28;19978;-72
2021/11/21 09:02:14;;;;;;;;;;;13.20;52.50;;;;;;5071308;28;20003;-73
2021/11/21 09:04:39;;;;;;;;;;;13.20;52.60;;;;;;5073070;28;20406;-73
2021/11/21 09:07:05;;;;;;;;;;;13.20;52.60;;;;;;5071733;28;19916;-73
2021/11/21 09:09:31;;;;;;;;;;;13.30;52.50;;;;;;5073003;28;20381;-73
2021/11/21 09:11:56;;;;;;;;;;;13.30;52.50;;;;;;5059776;28;19915;-73
2021/11/21 09:14:24;;;;;;;;;;;13.30;52.50;;;;;;5052796;28;19932;-74
2021/11/21 09:16:50;;;;;;;;;;;13.40;52.60;;;;;;5052981;28;19974;-74
2021/11/21 09:19:16;;;;;;;;;;;13.40;52.50;;;;;;5052902;28;19952;-74
2021/11/21 09:21:42;;;;;;;;;;;13.40;52.40;;;;;;5052928;28;19916;-74
2021/11/21 09:24:08;;;;;;;;;;;13.50;52.30;;;;;;5052727;28;19944;-74
2021/11/21 09:26:34;;;;;;;;;;;13.50;52.30;;;;;;5052703;28;19967;-73
2021/11/21 09:28:59;;;;;;;;;;;13.60;52.20;;;;;;5052764;28;20393;-74
2021/11/21 09:31:25;;;;;;;;;;;13.60;52.20;;;;;;5052688;28;20442;-73
2021/11/21 09:33:51;;;;;;;;;;;13.70;52.20;;;;;;5070097;28;19947;-73
2021/11/21 09:36:16;;;;;;;;;;;13.70;52.10;;;;;;5072927;28;20348;-71
2021/11/21 09:38:43;;;;;;;;;;;13.80;52.20;;;;;;5072529;28;19909;-73
2021/11/21 09:41:09;;;;;;;;;;;13.80;52.10;;;;;;5072509;28;19908;-73
2021/11/21 09:43:34;;;;;;;;;;;13.90;52.10;;;;;;5072457;28;20259;-73
2021/11/21 09:46:00;;;;;;;;;;;13.90;51.90;;;;;;5072492;28;19912;-73
2021/11/21 09:48:30;;;;;;;;;;;13.90;51.70;;;;;;5072311;28;19951;-72
2021/11/21 09:50:56;;;;;;;;;;;14.00;51.70;;;;;;5071141;28;19908;-73
2021/11/21 09:53:22;;;;;;;;;;;14.00;51.50;;;;;;5072426;28;19909;-73
2021/11/21 09:55:48;;;;;;;;;;;14.00;51.30;;;;;;5072670;28;19958;-72
2021/11/21 09:58:16;;;;;;;;;;;14.00;51.20;;;;;;5072096;28;19919;-73
2021/11/21 10:00:42;;;;;;;;;;;14.00;51.20;;;;;;5072304;28;20377;-73
2021/11/21 10:03:09;;;;;;;;;;;13.90;51.00;;;;;;5072285;28;19931;-73
2021/11/21 10:05:48;;;;;;;;;;;13.80;50.80;;;;;;5072042;28;19913;-72
2021/11/21 10:08:18;;;;;;;;;;;13.80;50.80;;;;;;5072163;28;19955;-73
2021/11/21 10:10:46;;;;;;;;;;;13.70;50.80;;;;;;5072049;28;20324;-73
2021/11/21 10:13:28;;;;;;;;;;;13.60;50.90;;;;;;5070575;28;19909;-73
2021/11/21 10:15:54;;;;;;;;;;;13.50;51.00;;;;;;5071984;28;20336;-72
2021/11/21 10:18:20;;;;;;;;;;;13.40;51.20;;;;;;5071916;28;19915;-72
2021/11/21 10:20:46;;;;;;;;;;;13.30;52.00;;;;;;5071934;28;19915;-71
2021/11/21 10:23:12;;;;;;;;;;;13.30;51.50;;;;;;5071984;28;20004;-72
2021/11/21 10:25:42;;;;;;;;;;;13.30;51.60;;;;;;5072011;28;19963;-72
2021/11/21 10:28:22;;;;;;;;;;;13.20;51.50;;;;;;5072112;28;19909;-72
2021/11/21 10:30:57;;;;;;;;;;;13.20;51.60;;;;;;5071987;28;19937;-72
2021/11/21 10:33:26;;;;;;;;;;;13.20;51.70;;;;;;5072328;28;19971;-72
2021/11/21 10:35:56;;;;;;;;;;;13.10;51.70;;;;;;5071795;28;19915;-72
2021/11/21 10:38:30;;;;;;;;;;;13.20;51.90;;;;;;5071901;28;19908;-73
2021/11/21 10:40:55;;;;;;;;;;;13.20;51.90;;;;;;5072034;28;19909;-72
2021/11/21 10:43:21;;;;;;;;;;;13.10;51.70;;;;;;5071842;28;19909;-72
2021/11/21 10:45:49;;;;;;;;;;;13.10;51.70;;;;;;5071853;28;19917;-72
2021/11/21 10:48:22;;;;;;;;;;;13.00;51.70;;;;;;5071808;28;20431;-72
2021/11/21 10:50:50;;;;;;;;;;;13.00;51.80;;;;;;5071947;28;19909;-72
2021/11/21 10:53:16;;;;;;;;;;;13.00;51.90;;;;;;5071869;28;19942;-72
2021/11/21 10:55:41;;;;;;;;;;;13.00;51.90;;;;;;5071672;28;20336;-71
2021/11/21 10:58:14;;;;;;;;;;;13.00;52.10;;;;;;5070274;28;19913;-72
2021/11/21 11:00:40;;;;;;;;;;;12.90;52.00;;;;;;5071829;28;20023;-72
2021/11/21 11:03:15;;;;;;;;;;;12.90;52.00;;;;;;5071801;28;19912;-72
2021/11/21 11:05:40;;;;;;;;;;;13.00;52.10;;;;;;5070402;28;19943;-72
2021/11/21 11:08:06;;;;;;;;;;;12.90;52.10;;;;;;5070397;28;20702;-72
2021/11/21 11:10:34;;;;;;;;;;;12.90;52.10;;;;;;5071559;28;19912;-72
2021/11/21 11:13:03;;;;;;;;;;;12.90;52.10;;;;;;5070384;28;20281;-72
2021/11/21 11:15:30;;;;;;;;;;;12.90;52.00;;;;;;5071374;28;20341;-72
2021/11/21 11:17:55;;;;;;;;;;;12.80;52.10;;;;;;5071396;28;19909;-71
2021/11/21 11:20:22;;;;;;;;;;;12.80;52.10;;;;;;5071560;28;20277;-73
2021/11/21 11:22:48;;;;;;;;;;;12.80;52.20;;;;;;5070143;28;19916;-71
2021/11/21 11:25:15;;;;;;;;;;;12.80;52.30;;;;;;5073984;28;19919;-71
2021/11/21 11:27:44;;;;;;;;;;;12.80;52.90;;;;;;5075193;28;19940;-73
2021/11/21 11:30:10;;;;;;;;;;;12.80;52.40;;;;;;5074895;28;20255;-73
2021/11/21 11:32:37;;;;;;;;;;;12.90;52.50;;;;;;5075086;28;19932;-72
2021/11/21 11:35:25;;;;;;;;;;;12.90;52.50;;;;;;5074975;28;19908;-72
2021/11/21 11:37:52;;;;;;;;;;;12.90;52.50;;;;;;5073177;28;19966;-73
2021/11/21 11:40:33;;;;;;;;;;;12.90;52.40;;;;;;5074863;28;20328;-72
2021/11/21 11:42:59;;;;;;;;;;;12.90;52.30;;;;;;5074660;28;19909;-72
2021/11/21 11:45:42;;;;;;;;;;;12.90;52.40;;;;;;5074682;28;20328;-73
2021/11/21 11:48:26;;;;;;;;;;;13.00;52.40;;;;;;5074585;28;19909;-72
2021/11/21 11:50:52;;;;;;;;;;;13.00;52.40;;;;;;5074603;28;20401;-72
2021/11/21 11:53:36;;;;;;;;;;;13.00;52.50;;;;;;5074433;28;19943;-72
2021/11/21 11:56:20;;;;;;;;;;;13.00;52.50;;;;;;5074242;28;19908;-73
2021/11/21 11:58:50;;;;;;;;;;;13.00;52.50;;;;;;5074373;28;19908;-73
2021/11/21 12:01:48;;;;;;;;;;;13.00;52.40;;;;;;5074265;28;19909;-73
2021/11/21 12:04:17;;;;;;;;;;;13.00;52.50;;;;;;5031793;28;20012;-73
2021/11/21 12:06:48;;;;;;;;;;;13.00;52.50;;;;;;5032058;28;19940;-72
2021/11/21 12:09:16;;;;;;;;;;;13.00;52.50;;;;;;5032084;28;19952;-73
2021/11/21 12:12:00;;;;;;;;;;;13.00;52.40;;;;;;5031934;28;19920;-73
2021/11/21 12:14:26;;;;;;;;;;;13.10;52.40;;;;;;5031578;28;19921;-72
2021/11/21 12:17:01;;;;;;;;;;;13.10;52.40;;;;;;5031210;28;20218;-73
2021/11/21 12:19:39;;;;;;;;;;;13.00;52.30;;;;;;5031716;28;19913;-73
2021/11/21 12:22:05;;;;;;;;;;;13.10;52.40;;;;;;5031812;28;19996;-73
2021/11/21 12:24:33;;;;;;;;;;;13.10;52.50;;;;;;5031725;28;19919;-72
2021/11/21 12:27:02;;;;;;;;;;;13.10;52.30;;;;;;5031667;28;20285;-73
2021/11/21 12:29:29;;;;;;;;;;;13.10;52.30;;;;;;5031608;28;19909;-73
2021/11/21 12:31:57;;;;;;;;;;;13.10;52.30;;;;;;5031742;28;20003;-73
2021/11/21 12:34:26;;;;;;;;;;;13.10;52.30;;;;;;5031619;28;19905;-72
2021/11/21 12:37:09;;;;;;;;;;;13.10;52.30;;;;;;5031322;28;20005;-72
2021/11/21 12:39:35;;;;;;;;;;;13.10;52.30;;;;;;5042004;28;19905;-72
2021/11/21 12:42:02;;;;;;;;;;;13.10;52.30;;;;;;5073655;28;19915;-72
2021/11/21 12:44:28;;;;;;;;;;;13.10;52.30;;;;;;5072103;28;20345;-73
2021/11/21 12:46:58;;;;;;;;;;;13.10;52.30;;;;;;5073496;28;19951;-73
2021/11/21 12:49:24;;;;;;;;;;;13.10;52.40;;;;;;5073351;28;19943;-73
2021/11/21 12:52:02;;;;;;;;;;;13.10;52.30;;;;;;5073437;28;19952;-73
2021/11/21 12:54:28;;;;;;;;;;;13.10;52.30;;;;;;5073261;28;20362;-72
2021/11/21 12:56:54;;;;;;;;;;;13.20;52.30;;;;;;5073391;28;19915;-72
2021/11/21 12:59:19;;;;;;;;;;;13.20;52.30;;;;;;5071925;28;20374;-73
2021/11/21 13:01:45;;;;;;;;;;;13.20;52.30;;;;;;5071783;28;20015;-72
2021/11/21 13:04:11;;;;;;;;;;;13.20;52.20;;;;;;5073091;28;19935;-72
2021/11/21 13:06:37;;;;;;;;;;;13.20;52.20;;;;;;5073164;28;20409;-72
2021/11/21 13:09:02;;;;;;;;;;;13.20;52.10;;;;;;5073086;28;20007;-72
2021/11/21 13:11:28;;;;;;;;;;;13.20;51.90;;;;;;5071546;28;20349;-72
2021/11/21 13:13:56;;;;;;;;;;;13.20;51.80;;;;;;5073197;28;19951;-73
2021/11/21 13:16:26;;;;;;;;;;;13.20;51.80;;;;;;5072951;28;19913;-72
2021/11/21 13:18:52;;;;;;;;;;;13.20;51.80;;;;;;5072941;28;19958;-72
2021/11/21 13:21:22;;;;;;;;;;;13.20;51.80;;;;;;5071647;28;19916;-72
2021/11/21 13:23:49;;;;;;;;;;;13.20;51.80;;;;;;5072860;28;19909;-73
2021/11/21 13:26:17;;;;;;;;;;;13.20;51.80;;;;;;5073448;28;19961;-73
2021/11/21 13:28:55;;;;;;;;;;;13.20;51.80;;;;;;5072716;28;20465;-73
2021/11/21 13:31:23;;;;;;;;;;;13.20;51.70;;;;;;5072672;28;20316;-72
2021/11/21 13:33:58;;;;;;;;;;;13.20;51.70;;;;;;5072756;28;19916;-71
2021/11/21 13:36:27;;;;;;;;;;;13.20;51.70;;;;;;5072489;28;19933;-73
2021/11/21 13:39:04;;;;;;;;;;;13.20;51.70;;;;;;5072487;28;19908;-72
2021/11/21 13:41:30;;;;;;;;;;;13.20;51.70;;;;;;5072396;28;19909;-72
2021/11/21 13:44:22;;;;;;;;;;;13.20;51.70;;;;;;5072127;28;19981;-73
2021/11/21 13:46:49;;;;;;;;;;;13.10;51.80;;;;;;5069383;28;19987;-72
2021/11/21 13:49:19;;;;;;;;;;;13.10;51.80;;;;;;5072385;28;20033;-72
2021/11/21 13:51:46;;;;;;;;;;;13.00;51.70;;;;;;5072319;28;19954;-72
2021/11/21 13:54:11;;;;;;;;;;;13.00;51.70;;;;;;5072193;28;20388;-73
2021/11/21 13:56:41;;;;;;;;;;;13.00;51.70;;;;;;5072267;28;19982;-71
2021/11/21 13:59:09;;;;;;;;;;;13.00;51.80;;;;;;5072342;28;19915;-72
2021/11/21 14:01:42;;;;;;;;;;;12.90;51.80;;;;;;5071067;28;20322;-73
2021/11/21 14:04:08;;;;;;;;;;;12.90;51.80;;;;;;5070974;28;19913;-73
2021/11/21 14:06:34;;;;;;;;;;;12.90;51.90;;;;;;5072138;28;19971;-72
2021/11/21 14:09:00;;;;;;;;;;;12.90;51.90;;;;;;5072336;28;19912;-72
2021/11/21 14:11:30;;;;;;;;;;;12.80;52.00;;;;;;5072101;28;20597;-72
2021/11/21 14:14:05;;;;;;;;;;;12.80;52.00;;;;;;5071973;28;19908;-73
2021/11/21 14:16:31;;;;;;;;;;;12.70;52.00;;;;;;5072297;28;19908;-73
2021/11/21 14:18:56;;;;;;;;;;;12.70;52.20;;;;;;5072075;28;20003;-72